Time;durP1;ratioP1;P1;durP2;ratioP2;P2;SDS_P1;SDS_P2;PMS_P1;PMS_P2;Temp;Humidity;BMP_temperature;BMP_pressure;BME280_temperature;BME280_humidity;BME280_pressure;Samples;Min_cycle;Max_cycle;Signal;HPM_P1;HPM_P2
2023/12/30 00:01:21;;;;;;;5.13;1.67;;;;;;;;;;5071875;28;20206;-51
2023/12/30 00:03:48;;;;;;;1.97;1.50;;;;;;;;;;5072516;28;20332;-50
2023/12/30 00:06:15;;;;;;;2.67;1.50;;;;;;;;;;5072669;28;20266;-50
2023/12/30 00:08:41;;;;;;;2.40;1.40;;;;;;;;;;5062010;28;20201;-51
2023/12/30 00:11:08;;;;;;;2.53;1.87;;;;;;;;;;5052442;28;20230;-50
2023/12/30 00:13:34;;;;;;;4.10;1.73;;;;;;;;;;5052402;28;20204;-51
2023/12/30 00:16:00;;;;;;;3.23;1.60;;;;;;;;;;5070854;28;20207;-51
2023/12/30 00:18:26;;;;;;;3.37;1.87;;;;;;;;;;5071865;28;20231;-50
2023/12/30 00:20:52;;;;;;;1.67;1.40;;;;;;;;;;5030969;28;20231;-51
2023/12/30 00:23:18;;;;;;;1.60;1.50;;;;;;;;;;5052742;28;20200;-51
2023/12/30 00:25:44;;;;;;;3.67;1.63;;;;;;;;;;5052239;28;20561;-50
2023/12/30 00:28:12;;;;;;;2.53;1.40;;;;;;;;;;5070612;28;20191;-50
2023/12/30 00:30:38;;;;;;;4.93;1.70;;;;;;;;;;5072451;28;20199;-51
2023/12/30 00:33:04;;;;;;;4.07;1.57;;;;;;;;;;5072491;28;20203;-51
2023/12/30 00:35:30;;;;;;;4.27;1.70;;;;;;;;;;5072412;28;20211;-51
2023/12/30 00:37:56;;;;;;;2.20;1.47;;;;;;;;;;5072309;28;20223;-51
2023/12/30 00:40:22;;;;;;;3.70;1.80;;;;;;;;;;5072399;28;20242;-51
2023/12/30 00:42:48;;;;;;;2.80;1.60;;;;;;;;;;5072124;28;20209;-50
2023/12/30 00:45:15;;;;;;;2.70;1.87;;;;;;;;;;5072532;28;20257;-50
2023/12/30 00:47:41;;;;;;;2.97;1.60;;;;;;;;;;5071946;28;20342;-49
2023/12/30 00:50:07;;;;;;;1.83;1.43;;;;;;;;;;5072307;28;20250;-49
2023/12/30 00:52:33;;;;;;;3.27;1.80;;;;;;;;;;5071787;28;20230;-49
2023/12/30 00:54:59;;;;;;;4.87;1.60;;;;;;;;;;5071991;28;20227;-49
2023/12/30 00:57:25;;;;;;;5.23;1.70;;;;;;;;;;5071993;28;20730;-48
2023/12/30 00:59:51;;;;;;;1.47;1.37;;;;;;;;;;5072009;28;20199;-49
2023/12/30 01:02:19;;;;;;;3.63;1.40;;;;;;;;;;5072206;28;20202;-49
2023/12/30 01:04:45;;;;;;;2.27;1.30;;;;;;;;;;5071699;28;20210;-49
2023/12/30 01:07:11;;;;;;;4.30;1.63;;;;;;;;;;5071898;28;20570;-49
2023/12/30 01:09:37;;;;;;;2.73;1.63;;;;;;;;;;5071779;28;20264;-50
2023/12/30 01:12:03;;;;;;;1.83;1.30;;;;;;;;;;5071642;28;20203;-49
2023/12/30 01:14:29;;;;;;;2.40;1.73;;;;;;;;;;5060020;28;20276;-51
2023/12/30 01:16:55;;;;;;;2.13;1.50;;;;;;;;;;5048226;28;20212;-51
2023/12/30 01:19:23;;;;;;;2.63;1.60;;;;;;;;;;5049909;28;20204;-51
2023/12/30 01:21:49;;;;;;;3.07;1.80;;;;;;;;;;5051831;28;20192;-52
2023/12/30 01:24:15;;;;;;;4.03;1.50;;;;;;;;;;5051876;28;20686;-51
2023/12/30 01:26:41;;;;;;;2.00;1.30;;;;;;;;;;5051760;28;20216;-51
2023/12/30 01:29:07;;;;;;;1.90;1.40;;;;;;;;;;5051848;28;20200;-51
2023/12/30 01:31:36;;;;;;;1.60;1.30;;;;;;;;;;5051697;28;20249;-52
2023/12/30 01:34:02;;;;;;;3.20;1.37;;;;;;;;;;5051928;28;20218;-51
2023/12/30 01:36:31;;;;;;;3.03;1.40;;;;;;;;;;5051906;28;20296;-52
2023/12/30 01:38:57;;;;;;;2.10;1.50;;;;;;;;;;5051863;28;20228;-50
2023/12/30 01:41:23;;;;;;;3.67;1.50;;;;;;;;;;5051651;28;20279;-51
2023/12/30 01:43:49;;;;;;;2.27;1.43;;;;;;;;;;5051540;28;20662;-52
2023/12/30 01:46:15;;;;;;;5.43;1.70;;;;;;;;;;5051677;28;20272;-52
2023/12/30 01:48:41;;;;;;;3.13;1.53;;;;;;;;;;5051551;28;20196;-52
2023/12/30 01:51:07;;;;;;;1.57;1.40;;;;;;;;;;5051667;28;20307;-52
2023/12/30 01:53:36;;;;;;;3.90;1.30;;;;;;;;;;5051585;28;20220;-52
2023/12/30 01:56:02;;;;;;;3.77;1.30;;;;;;;;;;5051610;28;20702;-52
2023/12/30 01:58:28;;;;;;;2.40;1.40;;;;;;;;;;5051561;28;20248;-52
2023/12/30 02:00:54;;;;;;;2.70;1.40;;;;;;;;;;5051138;28;20204;-52
2023/12/30 02:03:20;;;;;;;1.83;1.10;;;;;;;;;;5051377;28;20204;-52
2023/12/30 02:05:47;;;;;;;3.23;1.30;;;;;;;;;;5051334;28;20254;-52
2023/12/30 02:08:13;;;;;;;1.40;1.20;;;;;;;;;;5051482;28;20196;-52
2023/12/30 02:10:40;;;;;;;1.53;1.10;;;;;;;;;;5051192;28;20246;-51
2023/12/30 02:13:07;;;;;;;4.33;1.40;;;;;;;;;;5051360;28;20227;-52
2023/12/30 02:15:35;;;;;;;3.33;1.73;;;;;;;;;;5051337;28;20615;-52
2023/12/30 02:18:01;;;;;;;5.87;1.50;;;;;;;;;;5047575;28;20710;-52
2023/12/30 02:20:28;;;;;;;3.17;1.50;;;;;;;;;;5051453;28;20200;-52
2023/12/30 02:22:55;;;;;;;3.77;1.47;;;;;;;;;;5050686;28;20607;-52
2023/12/30 02:25:21;;;;;;;2.77;1.50;;;;;;;;;;5051243;28;20618;-53
2023/12/30 02:27:47;;;;;;;5.03;1.47;;;;;;;;;;5054921;28;20288;-52
2023/12/30 02:30:14;;;;;;;1.90;1.23;;;;;;;;;;5053449;28;20200;-52
2023/12/30 02:32:40;;;;;;;2.83;1.30;;;;;;;;;;5054709;28;20205;-53
2023/12/30 02:35:06;;;;;;;5.90;1.90;;;;;;;;;;5054965;28;20350;-52
2023/12/30 02:37:32;;;;;;;3.03;1.53;;;;;;;;;;5051337;28;20220;-52
2023/12/30 02:39:59;;;;;;;4.87;1.50;;;;;;;;;;5053004;28;20219;-52
2023/12/30 02:42:25;;;;;;;5.00;1.77;;;;;;;;;;5049416;28;20688;-52
2023/12/30 02:44:52;;;;;;;4.60;1.70;;;;;;;;;;5051144;28;20291;-52
2023/12/30 02:47:18;;;;;;;3.93;1.60;;;;;;;;;;5054727;28;20240;-52
2023/12/30 02:49:45;;;;;;;3.63;1.63;;;;;;;;;;5054424;28;20254;-52
2023/12/30 02:52:11;;;;;;;4.00;1.83;;;;;;;;;;5052819;28;20196;-52
2023/12/30 02:54:37;;;;;;;3.60;1.60;;;;;;;;;;5052328;28;20406;-53
2023/12/30 02:57:05;;;;;;;4.17;1.57;;;;;;;;;;5054626;28;20205;-52
2023/12/30 02:59:32;;;;;;;4.73;1.50;;;;;;;;;;5054563;28;20242;-52
2023/12/30 03:01:58;;;;;;;4.07;1.50;;;;;;;;;;5049363;28;20268;-52
2023/12/30 03:04:24;;;;;;;3.87;1.70;;;;;;;;;;5049365;28;20744;-52
2023/12/30 03:06:50;;;;;;;3.17;1.80;;;;;;;;;;5053981;28;20223;-52
2023/12/30 03:09:16;;;;;;;4.17;1.53;;;;;;;;;;5054452;28;20208;-52
2023/12/30 03:11:42;;;;;;;3.40;1.87;;;;;;;;;;5054063;28;20231;-52
2023/12/30 03:14:09;;;;;;;3.03;1.40;;;;;;;;;;5054310;28;20226;-52
2023/12/30 03:16:35;;;;;;;5.27;1.70;;;;;;;;;;5054155;28;20219;-52
2023/12/30 03:19:01;;;;;;;4.90;1.80;;;;;;;;;;5054227;28;20262;-52
2023/12/30 03:21:28;;;;;;;5.43;1.87;;;;;;;;;;5054106;28;20227;-52
2023/12/30 03:23:54;;;;;;;4.90;2.07;;;;;;;;;;5053918;28;20200;-52
2023/12/30 03:26:20;;;;;;;8.40;2.10;;;;;;;;;;5052999;28;20204;-53
2023/12/30 03:28:46;;;;;;;5.87;2.13;;;;;;;;;;5053558;28;20202;-52
2023/12/30 03:31:20;;;;;;;6.77;1.93;;;;;;;;;;5054034;28;20248;-52
2023/12/30 03:33:46;;;;;;;7.00;2.17;;;;;;;;;;5053898;28;20613;-52
2023/12/30 03:36:12;;;;;;;5.70;1.73;;;;;;;;;;5053781;28;20669;-52
2023/12/30 03:38:38;;;;;;;3.23;1.47;;;;;;;;;;5053738;28;20232;-52
2023/12/30 03:41:04;;;;;;;6.60;1.53;;;;;;;;;;5053816;28;20226;-52
2023/12/30 03:43:30;;;;;;;4.90;1.70;;;;;;;;;;5053889;28;20207;-52
2023/12/30 03:45:56;;;;;;;3.23;1.63;;;;;;;;;;5053525;28;20536;-53
2023/12/30 03:48:23;;;;;;;7.00;1.93;;;;;;;;;;5053660;28;20235;-52
2023/12/30 03:50:49;;;;;;;7.40;2.10;;;;;;;;;;5053624;28;20204;-52
2023/12/30 03:53:15;;;;;;;6.73;2.00;;;;;;;;;;5053653;28;20223;-52
2023/12/30 03:55:41;;;;;;;2.00;1.50;;;;;;;;;;5042990;28;20269;-52
2023/12/30 03:58:07;;;;;;;3.67;1.57;;;;;;;;;;5042070;28;20240;-53
2023/12/30 04:00:33;;;;;;;5.20;1.87;;;;;;;;;;5044694;28;20192;-52
2023/12/30 04:02:59;;;;;;;6.33;1.60;;;;;;;;;;5044650;28;20629;-51
2023/12/30 04:05:27;;;;;;;2.10;1.47;;;;;;;;;;5042935;28;20216;-52
2023/12/30 04:07:52;;;;;;;6.13;2.10;;;;;;;;;;5042837;28;20694;-52
2023/12/30 04:10:18;;;;;;;4.23;1.70;;;;;;;;;;5044421;28;20683;-53
2023/12/30 04:12:44;;;;;;;5.47;1.70;;;;;;;;;;5043794;28;20654;-53
2023/12/30 04:15:11;;;;;;;3.73;1.70;;;;;;;;;;5042379;28;20208;-53
2023/12/30 04:17:37;;;;;;;4.03;1.60;;;;;;;;;;5044174;28;20232;-52
2023/12/30 04:20:03;;;;;;;7.70;2.10;;;;;;;;;;5042621;28;20211;-53
2023/12/30 04:22:30;;;;;;;5.73;1.90;;;;;;;;;;5042537;28;20210;-52
2023/12/30 04:24:57;;;;;;;4.40;1.83;;;;;;;;;;5042501;28;20750;-52
2023/12/30 04:27:23;;;;;;;7.03;1.83;;;;;;;;;;5040952;28;20202;-53
2023/12/30 04:29:49;;;;;;;7.20;2.10;;;;;;;;;;5038802;28;20279;-53
2023/12/30 04:32:15;;;;;;;3.93;1.63;;;;;;;;;;5043580;28;20212;-53
2023/12/30 04:34:41;;;;;;;6.13;1.90;;;;;;;;;;5041879;28;20207;-52
2023/12/30 04:37:07;;;;;;;6.27;2.10;;;;;;;;;;5042201;28;20200;-52
2023/12/30 04:39:34;;;;;;;6.27;2.03;;;;;;;;;;5041014;28;20228;-52
2023/12/30 04:42:00;;;;;;;2.77;1.60;;;;;;;;;;5042204;28;20216;-52
2023/12/30 04:44:26;;;;;;;6.97;1.93;;;;;;;;;;5042264;28;20203;-52
2023/12/30 04:46:52;;;;;;;6.40;2.00;;;;;;;;;;5041126;28;20718;-53
2023/12/30 04:49:18;;;;;;;3.93;1.70;;;;;;;;;;5042061;28;20181;-52
2023/12/30 04:51:44;;;;;;;4.77;1.80;;;;;;;;;;5043673;28;20224;-52
2023/12/30 04:54:10;;;;;;;5.93;1.97;;;;;;;;;;5042005;28;20200;-52
2023/12/30 04:56:38;;;;;;;5.13;1.83;;;;;;;;;;5043579;28;20196;-52
2023/12/30 04:59:04;;;;;;;2.93;1.90;;;;;;;;;;5041711;28;20251;-52
2023/12/30 05:01:33;;;;;;;5.70;1.60;;;;;;;;;;5041749;28;20645;-52
2023/12/30 05:03:59;;;;;;;5.97;1.90;;;;;;;;;;5038076;28;20613;-53
2023/12/30 05:06:25;;;;;;;5.37;1.60;;;;;;;;;;5039163;28;20279;-52
2023/12/30 05:08:51;;;;;;;4.60;1.60;;;;;;;;;;5042933;28;20290;-52
2023/12/30 05:11:17;;;;;;;4.47;1.87;;;;;;;;;;5043271;28;20662;-53
2023/12/30 05:13:44;;;;;;;5.80;2.30;;;;;;;;;;5041284;28;20212;-52
2023/12/30 05:16:10;;;;;;;4.20;1.80;;;;;;;;;;5041343;28;20196;-53
2023/12/30 05:18:36;;;;;;;4.10;1.80;;;;;;;;;;5038135;28;20227;-53
2023/12/30 05:21:02;;;;;;;9.30;2.20;;;;;;;;;;5039481;28;20678;-52
2023/12/30 05:23:28;;;;;;;6.30;1.70;;;;;;;;;;5041490;28;20212;-52
2023/12/30 05:25:54;;;;;;;6.03;2.63;;;;;;;;;;5039461;28;20701;-53
2023/12/30 05:28:20;;;;;;;4.77;1.73;;;;;;;;;;5042088;28;20300;-53
2023/12/30 05:30:47;;;;;;;4.67;1.67;;;;;;;;;;5040332;28;20204;-53
2023/12/30 05:33:13;;;;;;;6.30;1.80;;;;;;;;;;5040583;28;20199;-53
2023/12/30 05:35:40;;;;;;;7.53;2.17;;;;;;;;;;5039292;28;20563;-53
2023/12/30 05:38:06;;;;;;;3.63;1.90;;;;;;;;;;5037775;28;20224;-53
2023/12/30 05:40:32;;;;;;;6.90;2.00;;;;;;;;;;5040964;28;20206;-53
2023/12/30 05:42:58;;;;;;;6.70;1.60;;;;;;;;;;5042973;28;20200;-52
2023/12/30 05:45:24;;;;;;;4.60;2.10;;;;;;;;;;5041263;28;20634;-53
2023/12/30 05:47:51;;;;;;;6.43;1.53;;;;;;;;;;5038778;28;20239;-53
2023/12/30 05:50:17;;;;;;;6.00;1.70;;;;;;;;;;5039342;28;20231;-53
2023/12/30 05:52:43;;;;;;;5.57;1.90;;;;;;;;;;5041206;28;20274;-53
2023/12/30 05:55:09;;;;;;;5.03;1.90;;;;;;;;;;5039095;28;20223;-53
2023/12/30 05:57:35;;;;;;;5.80;2.30;;;;;;;;;;5040350;28;20277;-53
2023/12/30 06:00:01;;;;;;;7.50;2.20;;;;;;;;;;5041893;28;20678;-53
2023/12/30 06:02:28;;;;;;;7.47;2.00;;;;;;;;;;5045252;28;20224;-53
2023/12/30 06:04:56;;;;;;;7.27;1.97;;;;;;;;;;5044339;28;20200;-53
2023/12/30 06:07:22;;;;;;;3.90;1.93;;;;;;;;;;5043207;28;20660;-53
2023/12/30 06:09:48;;;;;;;5.80;1.97;;;;;;;;;;5042774;28;20251;-53
2023/12/30 06:12:14;;;;;;;8.00;2.10;;;;;;;;;;5045188;28;20200;-53
2023/12/30 06:14:40;;;;;;;8.97;2.20;;;;;;;;;;5041535;28;20218;-53
2023/12/30 06:17:07;;;;;;;7.70;2.00;;;;;;;;;;5047747;28;20806;-53
2023/12/30 06:19:33;;;;;;;6.87;2.00;;;;;;;;;;5043990;28;20228;-54
2023/12/30 06:22:00;;;;;;;4.83;1.70;;;;;;;;;;5042994;28;20246;-53
2023/12/30 06:24:26;;;;;;;9.53;2.23;;;;;;;;;;5044370;28;20201;-53
2023/12/30 06:26:52;;;;;;;7.67;2.00;;;;;;;;;;5043858;28;20246;-53
2023/12/30 06:29:22;;;;;;;4.87;2.03;;;;;;;;;;5044483;28;20722;-53
2023/12/30 06:31:48;;;;;;;6.27;2.37;;;;;;;;;;5042616;28;20606;-53
2023/12/30 06:34:14;;;;;;;5.77;1.83;;;;;;;;;;5042717;28;20204;-53
2023/12/30 06:36:41;;;;;;;4.70;1.93;;;;;;;;;;5042633;28;20246;-53
2023/12/30 06:39:09;;;;;;;6.67;1.97;;;;;;;;;;5042903;28;20510;-53
2023/12/30 06:41:35;;;;;;;7.27;2.67;;;;;;;;;;5046800;28;20257;-53
2023/12/30 06:44:01;;;;;;;5.63;2.20;;;;;;;;;;5043354;28;20204;-52
2023/12/30 06:46:27;;;;;;;7.23;1.90;;;;;;;;;;5043933;28;20786;-53
2023/12/30 06:48:53;;;;;;;4.93;2.23;;;;;;;;;;5044294;28;20200;-53
2023/12/30 06:51:19;;;;;;;5.63;1.97;;;;;;;;;;5044258;28;20193;-53
2023/12/30 06:53:45;;;;;;;9.27;2.00;;;;;;;;;;5044115;28;20573;-53
2023/12/30 06:56:12;;;;;;;9.77;2.57;;;;;;;;;;5043839;28;20667;-53
2023/12/30 06:58:38;;;;;;;7.33;2.30;;;;;;;;;;5042131;28;20256;-52
2023/12/30 07:01:04;;;;;;;8.27;1.90;;;;;;;;;;5042907;28;20227;-53
2023/12/30 07:03:31;;;;;;;6.50;2.10;;;;;;;;;;5042516;28;20193;-53
2023/12/30 07:05:57;;;;;;;7.27;2.00;;;;;;;;;;5041738;28;20204;-52
2023/12/30 07:08:22;;;;;;;7.80;2.60;;;;;;;;;;5043349;28;20193;-52
2023/12/30 07:10:48;;;;;;;7.27;2.10;;;;;;;;;;5041404;28;20274;-53
2023/12/30 07:13:16;;;;;;;10.27;2.97;;;;;;;;;;5043588;28;20200;-54
2023/12/30 07:15:42;;;;;;;6.50;2.43;;;;;;;;;;5043872;28;20208;-52
2023/12/30 07:18:08;;;;;;;6.07;2.10;;;;;;;;;;5043132;28;20224;-53
2023/12/30 07:20:35;;;;;;;5.60;3.00;;;;;;;;;;5043324;28;20600;-53
2023/12/30 07:23:02;;;;;;;5.00;2.30;;;;;;;;;;5041567;28;20434;-53
2023/12/30 07:25:28;;;;;;;8.03;2.50;;;;;;;;;;5043304;28;20200;-53
2023/12/30 07:27:54;;;;;;;10.33;2.43;;;;;;;;;;5041634;28;20581;-54
2023/12/30 07:30:21;;;;;;;5.07;2.13;;;;;;;;;;5043237;28;20206;-53
2023/12/30 07:32:47;;;;;;;6.30;1.70;;;;;;;;;;5043395;28;20231;-53
2023/12/30 07:35:13;;;;;;;6.13;1.60;;;;;;;;;;5043305;28;20227;-53
2023/12/30 07:37:39;;;;;;;5.73;2.00;;;;;;;;;;5040795;28;20611;-53
2023/12/30 07:40:06;;;;;;;7.87;2.17;;;;;;;;;;5044877;28;20295;-53
2023/12/30 07:42:32;;;;;;;6.43;1.90;;;;;;;;;;5041582;28;20250;-53
2023/12/30 07:44:58;;;;;;;3.77;2.10;;;;;;;;;;5041271;28;20189;-53
2023/12/30 07:47:25;;;;;;;6.80;2.30;;;;;;;;;;5042731;28;20228;-53
2023/12/30 07:49:52;;;;;;;8.47;2.17;;;;;;;;;;5041459;28;20211;-53
2023/12/30 07:52:18;;;;;;;11.00;2.70;;;;;;;;;;5042884;28;20298;-52
2023/12/30 07:54:45;;;;;;;7.60;2.47;;;;;;;;;;5040963;28;20689;-53
2023/12/30 07:57:11;;;;;;;10.43;2.57;;;;;;;;;;5041216;28;20253;-53
2023/12/30 07:59:37;;;;;;;8.70;2.53;;;;;;;;;;5041176;28;20234;-53
2023/12/30 08:02:03;;;;;;;10.40;2.70;;;;;;;;;;5040853;28;20279;-53
2023/12/30 08:04:31;;;;;;;6.43;2.20;;;;;;;;;;5042702;28;20205;-52
2023/12/30 08:06:57;;;;;;;7.80;2.37;;;;;;;;;;5042748;28;20208;-52
2023/12/30 08:09:23;;;;;;;8.30;2.43;;;;;;;;;;5041120;28;20288;-53
2023/12/30 08:11:49;;;;;;;8.47;2.20;;;;;;;;;;5043916;28;20267;-53
2023/12/30 08:14:17;;;;;;;6.20;2.30;;;;;;;;;;5042025;28;20196;-53
2023/12/30 08:16:43;;;;;;;6.53;2.47;;;;;;;;;;5042619;28;20240;-52
2023/12/30 08:19:09;;;;;;;16.43;6.40;;;;;;;;;;5039772;28;20251;-53
2023/12/30 08:21:36;;;;;;;9.27;2.90;;;;;;;;;;5040000;28;20542;-53
2023/12/30 08:24:07;;;;;;;6.07;2.37;;;;;;;;;;5044335;28;20196;-52
2023/12/30 08:26:33;;;;;;;5.87;2.73;;;;;;;;;;5042486;28;20238;-52
2023/12/30 08:28:59;;;;;;;8.17;2.90;;;;;;;;;;5042377;28;20661;-53
2023/12/30 08:31:25;;;;;;;7.00;2.70;;;;;;;;;;5041052;28;20193;-52
2023/12/30 08:33:53;;;;;;;9.47;2.30;;;;;;;;;;5042504;28;20496;-52
2023/12/30 08:36:19;;;;;;;7.30;2.10;;;;;;;;;;5040500;28;20210;-52
2023/12/30 08:38:48;;;;;;;5.20;2.43;;;;;;;;;;5042073;28;20243;-52
2023/12/30 08:41:19;;;;;;;5.97;2.20;;;;;;;;;;5043648;28;20205;-52
2023/12/30 08:43:45;;;;;;;7.60;3.07;;;;;;;;;;5040420;28;20257;-52
2023/12/30 08:46:12;;;;;;;4.13;2.07;;;;;;;;;;5045163;28;20204;-51
2023/12/30 08:48:41;;;;;;;9.47;2.40;;;;;;;;;;5041692;28;20674;-51
2023/12/30 08:51:07;;;;;;;6.67;2.67;;;;;;;;;;5038340;28;20262;-50
2023/12/30 08:53:33;;;;;;;8.83;2.33;;;;;;;;;;5041829;28;20651;-52
2023/12/30 08:56:02;;;;;;;8.27;2.37;;;;;;;;;;5042064;28;20197;-50
2023/12/30 08:58:28;;;;;;;5.80;2.77;;;;;;;;;;5043333;28;20712;-50
2023/12/30 09:00:54;;;;;;;8.87;2.00;;;;;;;;;;5052176;28;20200;-49
2023/12/30 09:03:20;;;;;;;3.17;2.23;;;;;;;;;;5052112;28;20196;-52
2023/12/30 09:05:46;;;;;;;5.63;2.53;;;;;;;;;;5052364;28;20219;-50
2023/12/30 09:08:12;;;;;;;8.07;2.17;;;;;;;;;;5050113;28;20188;-50
2023/12/30 09:10:38;;;;;;;9.77;2.50;;;;;;;;;;5052127;28;20334;-50
2023/12/30 09:13:06;;;;;;;8.93;2.40;;;;;;;;;;5051808;28;20202;-50
2023/12/30 09:15:33;;;;;;;6.10;2.17;;;;;;;;;;5052019;28;20211;-49
2023/12/30 09:18:00;;;;;;;7.37;2.20;;;;;;;;;;5051758;28;20219;-51
2023/12/30 09:20:26;;;;;;;5.43;2.10;;;;;;;;;;5051806;28;20187;-51
2023/12/30 09:22:52;;;;;;;8.43;2.23;;;;;;;;;;5051804;28;20219;-50
2023/12/30 09:25:18;;;;;;;9.13;2.27;;;;;;;;;;5051642;28;20736;-51
2023/12/30 09:27:44;;;;;;;4.80;2.03;;;;;;;;;;5051929;28;20204;-51
2023/12/30 09:30:12;;;;;;;8.83;2.47;;;;;;;;;;5049833;28;20191;-51
2023/12/30 09:32:38;;;;;;;5.43;2.10;;;;;;;;;;5051414;28;20215;-51
2023/12/30 09:35:05;;;;;;;8.93;2.53;;;;;;;;;;5051092;28;20275;-54
2023/12/30 09:37:31;;;;;;;7.87;2.50;;;;;;;;;;5051633;28;20215;-51
2023/12/30 09:39:57;;;;;;;9.53;2.63;;;;;;;;;;5051258;28;20693;-51
2023/12/30 09:42:23;;;;;;;7.43;2.40;;;;;;;;;;5051267;28;20200;-50
2023/12/30 09:44:50;;;;;;;8.17;2.47;;;;;;;;;;5051315;28;20247;-51
2023/12/30 09:47:17;;;;;;;5.23;2.03;;;;;;;;;;5050864;28;20290;-51
2023/12/30 09:49:44;;;;;;;7.80;2.70;;;;;;;;;;5051244;28;20199;-51
2023/12/30 09:52:10;;;;;;;5.73;2.50;;;;;;;;;;5051222;28;20204;-51
2023/12/30 09:54:38;;;;;;;6.97;2.60;;;;;;;;;;5050021;28;20572;-50
2023/12/30 09:57:06;;;;;;;5.23;2.70;;;;;;;;;;5051088;28;20227;-51
2023/12/30 09:59:41;;;;;;;7.87;2.67;;;;;;;;;;5051274;28;20235;-51
2023/12/30 10:02:09;;;;;;;7.50;2.30;;;;;;;;;;5051216;28;20194;-51
2023/12/30 10:04:37;;;;;;;4.70;2.50;;;;;;;;;;5051347;28;20220;-51
2023/12/30 10:07:03;;;;;;;8.17;2.57;;;;;;;;;;5051098;28;20202;-51
2023/12/30 10:09:29;;;;;;;8.00;2.63;;;;;;;;;;5051566;28;20254;-51
2023/12/30 10:11:56;;;;;;;11.43;3.43;;;;;;;;;;5049625;28;20253;-50
2023/12/30 10:14:22;;;;;;;9.07;3.43;;;;;;;;;;5040787;28;20219;-50
2023/12/30 10:16:48;;;;;;;7.20;2.60;;;;;;;;;;5041300;28;20665;-50
2023/12/30 10:19:16;;;;;;;8.13;2.87;;;;;;;;;;5045808;28;20310;-51
2023/12/30 10:21:43;;;;;;;8.07;2.77;;;;;;;;;;5040633;28;20271;-51
2023/12/30 10:24:10;;;;;;;6.70;3.13;;;;;;;;;;5045759;28;20696;-51
2023/12/30 10:26:39;;;;;;;9.03;3.00;;;;;;;;;;5044229;28;20204;-51
2023/12/30 10:29:06;;;;;;;8.13;2.40;;;;;;;;;;5038847;28;20250;-52
2023/12/30 10:31:32;;;;;;;6.40;2.37;;;;;;;;;;5044157;28;20211;-51
2023/12/30 10:33:58;;;;;;;6.70;2.23;;;;;;;;;;5045761;28;20197;-52
2023/12/30 10:36:27;;;;;;;10.47;2.60;;;;;;;;;;5045476;28;20220;-51
2023/12/30 10:38:54;;;;;;;6.37;2.30;;;;;;;;;;5045283;28;20694;-51
2023/12/30 10:41:20;;;;;;;6.97;2.37;;;;;;;;;;5049135;28;20613;-51
2023/12/30 10:43:46;;;;;;;6.53;2.47;;;;;;;;;;5049360;28;20222;-51
2023/12/30 10:46:13;;;;;;;7.93;2.80;;;;;;;;;;5064714;28;20199;-51
2023/12/30 10:48:44;;;;;;;7.17;2.77;;;;;;;;;;5074137;28;20195;-51
2023/12/30 10:51:10;;;;;;;6.87;2.53;;;;;;;;;;5064816;28;20200;-51
2023/12/30 10:53:44;;;;;;;7.77;2.90;;;;;;;;;;5054362;28;20211;-52
2023/12/30 10:56:12;;;;;;;8.73;2.90;;;;;;;;;;5054181;28;20667;-51
2023/12/30 10:58:40;;;;;;;7.77;2.60;;;;;;;;;;5054166;28;20228;-52
2023/12/30 11:01:06;;;;;;;5.23;2.00;;;;;;;;;;5054437;28;20204;-51
2023/12/30 11:03:33;;;;;;;6.00;2.23;;;;;;;;;;5054181;28;20204;-52
2023/12/30 11:06:02;;;;;;;6.57;2.23;;;;;;;;;;5054496;28;20196;-52
2023/12/30 11:08:28;;;;;;;5.30;2.40;;;;;;;;;;5054154;28;20204;-51
2023/12/30 11:10:56;;;;;;;6.83;2.40;;;;;;;;;;5065282;28;20540;-51
2023/12/30 11:13:24;;;;;;;5.90;2.23;;;;;;;;;;5072571;28;20200;-52
2023/12/30 11:15:50;;;;;;;6.87;2.60;;;;;;;;;;5073796;28;20704;-52
2023/12/30 11:18:15;;;;;;;8.00;2.30;;;;;;;;;;5073724;28;20220;-51
2023/12/30 11:20:43;;;;;;;7.07;2.10;;;;;;;;;;5073902;28;20269;-51
2023/12/30 11:23:10;;;;;;;5.33;2.00;;;;;;;;;;5073609;28;20668;-52
2023/12/30 11:25:37;;;;;;;6.03;2.27;;;;;;;;;;5074008;28;20591;-51
2023/12/30 11:28:12;;;;;;;8.77;2.30;;;;;;;;;;5073788;28;20219;-52
2023/12/30 11:30:40;;;;;;;8.73;2.20;;;;;;;;;;5073614;28;20199;-52
2023/12/30 11:33:06;;;;;;;4.57;2.13;;;;;;;;;;5073827;28;20209;-52
2023/12/30 11:35:32;;;;;;;6.57;2.20;;;;;;;;;;5073823;28;20643;-51
2023/12/30 11:38:00;;;;;;;8.87;2.93;;;;;;;;;;5073878;28;20206;-52
2023/12/30 11:40:28;;;;;;;7.60;2.50;;;;;;;;;;5073168;28;20188;-51
2023/12/30 11:42:54;;;;;;;6.83;2.10;;;;;;;;;;5073434;28;20214;-52
2023/12/30 11:45:21;;;;;;;8.43;2.20;;;;;;;;;;5073534;28;20567;-52
2023/12/30 11:47:49;;;;;;;4.87;1.60;;;;;;;;;;5073192;28;20443;-52
2023/12/30 11:50:15;;;;;;;6.70;2.33;;;;;;;;;;5073312;28;20224;-52
2023/12/30 11:52:46;;;;;;;4.93;2.17;;;;;;;;;;5072942;28;20227;-50
2023/12/30 11:55:13;;;;;;;4.93;1.90;;;;;;;;;;5073309;28;20200;-51
2023/12/30 11:57:39;;;;;;;5.37;2.23;;;;;;;;;;5073429;28;20200;-50
2023/12/30 12:00:07;;;;;;;5.10;2.07;;;;;;;;;;5071502;28;20219;-50
2023/12/30 12:02:33;;;;;;;10.30;2.93;;;;;;;;;;5072880;28;20207;-51
2023/12/30 12:05:01;;;;;;;7.27;2.20;;;;;;;;;;5072887;28;20278;-51
2023/12/30 12:07:27;;;;;;;6.27;1.97;;;;;;;;;;5073167;28;20696;-51
2023/12/30 12:09:53;;;;;;;7.40;2.00;;;;;;;;;;5072874;28;20235;-50
2023/12/30 12:12:22;;;;;;;4.73;1.93;;;;;;;;;;5072549;28;20310;-51
2023/12/30 12:14:49;;;;;;;8.07;2.00;;;;;;;;;;5072982;28;20199;-51
2023/12/30 12:17:15;;;;;;;6.83;2.63;;;;;;;;;;5072700;28;20227;-50
2023/12/30 12:19:41;;;;;;;6.63;2.23;;;;;;;;;;5066409;28;20224;-50
2023/12/30 12:22:08;;;;;;;7.20;2.00;;;;;;;;;;5051063;28;20666;-50
2023/12/30 12:24:34;;;;;;;5.47;2.30;;;;;;;;;;5052666;28;20669;-51
2023/12/30 12:27:00;;;;;;;5.53;1.90;;;;;;;;;;5052791;28;20222;-50
2023/12/30 12:29:26;;;;;;;7.57;2.27;;;;;;;;;;5052563;28;20600;-50
2023/12/30 12:31:52;;;;;;;7.47;2.50;;;;;;;;;;5052831;28;20270;-51
2023/12/30 12:34:22;;;;;;;6.40;2.40;;;;;;;;;;5055020;28;20685;-51
2023/12/30 12:36:48;;;;;;;5.07;2.30;;;;;;;;;;5072425;28;20727;-51
2023/12/30 12:39:16;;;;;;;4.57;2.00;;;;;;;;;;5072489;28;20220;-51
2023/12/30 12:41:42;;;;;;;5.93;2.43;;;;;;;;;;5072647;28;20776;-50
2023/12/30 12:44:08;;;;;;;9.97;2.87;;;;;;;;;;5061474;28;20282;-51
2023/12/30 12:46:34;;;;;;;10.03;2.30;;;;;;;;;;5072035;28;20255;-50
2023/12/30 12:49:00;;;;;;;6.23;2.43;;;;;;;;;;5072062;28;20231;-50
2023/12/30 12:51:27;;;;;;;8.73;3.00;;;;;;;;;;5071968;28;20204;-51
2023/12/30 12:53:53;;;;;;;7.70;2.90;;;;;;;;;;5072011;28;20203;-51
2023/12/30 12:56:21;;;;;;;6.30;2.20;;;;;;;;;;5071894;28;20214;-51
2023/12/30 12:58:47;;;;;;;8.50;3.00;;;;;;;;;;5071776;28;20280;-51
2023/12/30 13:01:13;;;;;;;6.83;2.40;;;;;;;;;;5072207;28;20200;-50
2023/12/30 13:03:39;;;;;;;8.33;2.77;;;;;;;;;;5072177;28;20616;-52
2023/12/30 13:06:12;;;;;;;9.20;3.10;;;;;;;;;;5071594;28;20196;-51
2023/12/30 13:08:38;;;;;;;8.70;2.37;;;;;;;;;;5071337;28;20199;-51
2023/12/30 13:11:04;;;;;;;8.33;2.30;;;;;;;;;;5071978;28;20222;-51
2023/12/30 13:13:32;;;;;;;5.73;2.70;;;;;;;;;;5071886;28;20223;-51
2023/12/30 13:16:01;;;;;;;10.23;2.73;;;;;;;;;;5071851;28;20215;-52
2023/12/30 13:18:28;;;;;;;8.97;2.17;;;;;;;;;;5070933;28;20255;-52
2023/12/30 13:20:55;;;;;;;6.50;2.73;;;;;;;;;;5072008;28;20211;-51
2023/12/30 13:23:21;;;;;;;9.90;2.23;;;;;;;;;;5071196;28;20680;-51
2023/12/30 13:25:47;;;;;;;7.03;2.43;;;;;;;;;;5071683;28;20253;-51
2023/12/30 13:28:17;;;;;;;6.97;2.10;;;;;;;;;;5071599;28;20231;-52
2023/12/30 13:30:44;;;;;;;10.30;2.33;;;;;;;;;;5071794;28;20199;-51
2023/12/30 13:33:14;;;;;;;5.13;2.20;;;;;;;;;;5049776;28;20209;-52
2023/12/30 13:35:42;;;;;;;9.67;2.63;;;;;;;;;;5034599;28;20284;-49
2023/12/30 13:38:15;;;;;;;5.63;2.00;;;;;;;;;;5027284;28;20280;-50
2023/12/30 13:40:41;;;;;;;7.07;2.40;;;;;;;;;;5035706;28;20622;-50
2023/12/30 13:43:09;;;;;;;5.17;2.33;;;;;;;;;;5071167;28;20203;-50
2023/12/30 13:45:35;;;;;;;7.83;3.87;;;;;;;;;;5070623;28;20250;-51
2023/12/30 13:50:43;;;;;;;7.93;3.70;;;;;;;;;;5070597;28;20203;-52
2023/12/30 13:53:09;;;;;;;8.23;2.93;;;;;;;;;;5070806;28;20293;-50
2023/12/30 13:55:36;;;;;;;4.97;2.07;;;;;;;;;;5071082;28;20264;-50
2023/12/30 13:58:05;;;;;;;7.17;2.43;;;;;;;;;;5070847;28;20246;-51
2023/12/30 14:00:31;;;;;;;9.20;2.57;;;;;;;;;;5070891;28;20207;-50
2023/12/30 14:03:02;;;;;;;6.43;2.00;;;;;;;;;;5070813;28;20278;-50
2023/12/30 14:05:34;;;;;;;6.30;2.70;;;;;;;;;;5071017;28;20253;-49
2023/12/30 14:08:17;;;;;;;8.63;2.43;;;;;;;;;;5071254;28;20200;-50
2023/12/30 14:10:47;;;;;;;6.47;2.40;;;;;;;;;;5069329;28;20269;-51
2023/12/30 14:13:15;;;;;;;6.60;2.03;;;;;;;;;;5067546;28;20203;-51
2023/12/30 14:15:41;;;;;;;6.97;2.60;;;;;;;;;;5070942;28;20203;-51
2023/12/30 14:18:07;;;;;;;7.03;2.47;;;;;;;;;;5070655;28;20276;-51
2023/12/30 14:20:35;;;;;;;7.70;2.57;;;;;;;;;;5073134;28;20231;-51
2023/12/30 14:23:01;;;;;;;6.53;2.50;;;;;;;;;;5074882;28;20226;-51
2023/12/30 14:25:28;;;;;;;9.17;3.77;;;;;;;;;;5074565;28;20293;-51
2023/12/30 14:27:54;;;;;;;5.30;2.37;;;;;;;;;;5074639;28;20231;-51
2023/12/30 14:30:20;;;;;;;7.30;2.40;;;;;;;;;;5070833;28;20199;-51
2023/12/30 14:32:46;;;;;;;6.40;2.53;;;;;;;;;;5074511;28;20561;-51
2023/12/30 14:35:14;;;;;;;4.30;2.60;;;;;;;;;;5074262;28;20204;-51
2023/12/30 14:37:41;;;;;;;8.37;2.97;;;;;;;;;;5074597;28;20191;-51
2023/12/30 14:40:08;;;;;;;8.10;2.73;;;;;;;;;;5074044;28;20219;-51
2023/12/30 14:42:35;;;;;;;5.27;2.50;;;;;;;;;;5074494;28;20202;-50